sensor_id;sensor_type;location;lat;lon;timestamp;pressure;altitude;pressure_sealevel;temperature;humidity
77841;BME280;68598;43.188;-80.242;2023-03-14T00:00:17;98688.52;;;17.98;22.70
77841;BME280;68598;43.188;-80.242;2023-03-14T00:02:41;98690.37;;;18.55;22.61
77841;BME280;68598;43.188;-80.242;2023-03-14T00:05:09;98691.70;;;18.07;22.83
77841;BME280;68598;43.188;-80.242;2023-03-14T00:07:34;98692.92;;;18.51;22.72
77841;BME280;68598;43.188;-80.242;2023-03-14T00:09:59;98692.88;;;18.84;22.54
77841;BME280;68598;43.188;-80.242;2023-03-14T00:12:24;98696.76;;;18.67;22.70
77841;BME280;68598;43.188;-80.242;2023-03-14T00:14:49;98697.78;;;18.43;22.83
77841;BME280;68598;43.188;-80.242;2023-03-14T00:17:15;98697.01;;;18.89;22.59
77841;BME280;68598;43.188;-80.242;2023-03-14T00:19:41;98696.76;;;18.31;22.88
77841;BME280;68598;43.188;-80.242;2023-03-14T00:22:06;98697.06;;;17.69;23.38
77841;BME280;68598;43.188;-80.242;2023-03-14T00:24:32;98699.90;;;18.17;23.08
77841;BME280;68598;43.188;-80.242;2023-03-14T00:26:57;98698.06;;;18.11;22.78
77841;BME280;68598;43.188;-80.242;2023-03-14T00:29:23;98700.19;;;18.37;22.87
77841;BME280;68598;43.188;-80.242;2023-03-14T00:31:49;98700.30;;;18.41;22.88
77841;BME280;68598;43.188;-80.242;2023-03-14T00:34:14;98698.92;;;17.83;23.35
77841;BME280;68598;43.188;-80.242;2023-03-14T00:36:40;98700.84;;;18.10;23.03
77841;BME280;68598;43.188;-80.242;2023-03-14T00:39:05;98700.14;;;18.20;23.13
77841;BME280;68598;43.188;-80.242;2023-03-14T00:41:31;98699.97;;;18.17;22.86
77841;BME280;68598;43.188;-80.242;2023-03-14T00:43:56;98701.20;;;18.52;22.75
77841;BME280;68598;43.188;-80.242;2023-03-14T00:46:22;98704.23;;;18.28;22.74
77841;BME280;68598;43.188;-80.242;2023-03-14T00:48:48;98701.59;;;18.20;22.65
77841;BME280;68598;43.188;-80.242;2023-03-14T00:51:14;98704.44;;;18.41;22.54
77841;BME280;68598;43.188;-80.242;2023-03-14T00:53:39;98707.05;;;18.35;22.55
77841;BME280;68598;43.188;-80.242;2023-03-14T00:56:07;98711.88;;;18.80;22.47
77841;BME280;68598;43.188;-80.242;2023-03-14T00:58:30;98712.13;;;18.41;22.57
77841;BME280;68598;43.188;-80.242;2023-03-14T01:00:55;98716.67;;;18.62;22.66
77841;BME280;68598;43.188;-80.242;2023-03-14T01:03:21;98717.36;;;18.38;22.87
77841;BME280;68598;43.188;-80.242;2023-03-14T01:05:47;98717.87;;;18.31;22.99
77841;BME280;68598;43.188;-80.242;2023-03-14T01:08:18;98722.52;;;18.08;23.26
77841;BME280;68598;43.188;-80.242;2023-03-14T01:10:39;98723.37;;;18.74;23.20
77841;BME280;68598;43.188;-80.242;2023-03-14T01:13:03;98721.90;;;17.96;23.49
77841;BME280;68598;43.188;-80.242;2023-03-14T01:15:29;98722.35;;;18.08;23.39
77841;BME280;68598;43.188;-80.242;2023-03-14T01:17:54;98724.04;;;18.49;23.47
77841;BME280;68598;43.188;-80.242;2023-03-14T01:20:20;98723.87;;;18.20;23.43
77841;BME280;68598;43.188;-80.242;2023-03-14T01:22:46;98728.46;;;18.47;23.28
77841;BME280;68598;43.188;-80.242;2023-03-14T01:25:17;98728.46;;;18.63;23.24
77841;BME280;68598;43.188;-80.242;2023-03-14T01:27:37;98728.12;;;18.70;22.95
77841;BME280;68598;43.188;-80.242;2023-03-14T01:30:17;98734.84;;;18.89;22.77
77841;BME280;68598;43.188;-80.242;2023-03-14T01:32:35;98735.82;;;18.73;22.64
77841;BME280;68598;43.188;-80.242;2023-03-14T01:34:53;98736.39;;;18.49;22.86
77841;BME280;68598;43.188;-80.242;2023-03-14T01:37:19;98738.85;;;18.71;22.94
77841;BME280;68598;43.188;-80.242;2023-03-14T01:39:46;98741.85;;;18.74;22.84
77841;BME280;68598;43.188;-80.242;2023-03-14T01:42:10;98745.36;;;18.63;23.03
77841;BME280;68598;43.188;-80.242;2023-03-14T01:44:50;98747.42;;;18.53;23.15
77841;BME280;68598;43.188;-80.242;2023-03-14T01:47:01;98751.39;;;18.61;23.13
77841;BME280;68598;43.188;-80.242;2023-03-14T01:49:29;98753.37;;;19.06;23.21
77841;BME280;68598;43.188;-80.242;2023-03-14T01:51:56;98758.41;;;18.73;23.11
77841;BME280;68598;43.188;-80.242;2023-03-14T01:54:21;98759.57;;;19.22;23.00
77841;BME280;68598;43.188;-80.242;2023-03-14T01:56:48;98760.74;;;18.80;23.26
77841;BME280;68598;43.188;-80.242;2023-03-14T01:59:10;98765.23;;;18.18;23.34
77841;BME280;68598;43.188;-80.242;2023-03-14T02:01:36;98769.41;;;18.58;23.13
77841;BME280;68598;43.188;-80.242;2023-03-14T02:04:02;98774.08;;;18.76;22.91
77841;BME280;68598;43.188;-80.242;2023-03-14T02:06:29;98776.23;;;19.02;22.66
77841;BME280;68598;43.188;-80.242;2023-03-14T02:08:52;98780.09;;;19.19;22.85
77841;BME280;68598;43.188;-80.242;2023-03-14T02:11:18;98782.66;;;17.96;23.78
77841;BME280;68598;43.188;-80.242;2023-03-14T02:13:43;98782.07;;;18.17;24.00
77841;BME280;68598;43.188;-80.242;2023-03-14T02:16:09;98787.26;;;17.68;24.12
77841;BME280;68598;43.188;-80.242;2023-03-14T02:18:33;98789.41;;;18.08;24.04
77841;BME280;68598;43.188;-80.242;2023-03-14T02:21:01;98792.54;;;18.00;24.14
77841;BME280;68598;43.188;-80.242;2023-03-14T02:23:32;98792.33;;;17.92;24.16
77841;BME280;68598;43.188;-80.242;2023-03-14T02:25:55;98798.14;;;17.72;24.33
77841;BME280;68598;43.188;-80.242;2023-03-14T02:28:16;98801.34;;;19.69;22.76
77841;BME280;68598;43.188;-80.242;2023-03-14T02:30:41;98803.44;;;19.46;22.73
77841;BME280;68598;43.188;-80.242;2023-03-14T02:33:09;98801.87;;;19.89;22.62
77841;BME280;68598;43.188;-80.242;2023-03-14T02:35:37;98802.44;;;19.99;22.81
77841;BME280;68598;43.188;-80.242;2023-03-14T02:38:03;98801.59;;;20.13;22.43
77841;BME280;68598;43.188;-80.242;2023-03-14T02:40:24;98803.10;;;20.71;22.27
77841;BME280;68598;43.188;-80.242;2023-03-14T02:42:49;98803.42;;;20.59;22.35
77841;BME280;68598;43.188;-80.242;2023-03-14T02:45:36;98803.01;;;20.49;22.41
77841;BME280;68598;43.188;-80.242;2023-03-14T02:47:44;98804.66;;;19.72;22.75
77841;BME280;68598;43.188;-80.242;2023-03-14T02:50:11;98803.43;;;19.25;22.81
77841;BME280;68598;43.188;-80.242;2023-03-14T02:52:31;98805.79;;;19.69;22.81
77841;BME280;68598;43.188;-80.242;2023-03-14T02:54:56;98808.43;;;19.32;22.79
77841;BME280;68598;43.188;-80.242;2023-03-14T02:57:22;98805.32;;;19.63;22.73
77841;BME280;68598;43.188;-80.242;2023-03-14T02:59:48;98806.58;;;19.38;22.72
77841;BME280;68598;43.188;-80.242;2023-03-14T03:02:13;98806.90;;;18.88;23.02
77841;BME280;68598;43.188;-80.242;2023-03-14T03:04:39;98809.62;;;19.69;22.49
77841;BME280;68598;43.188;-80.242;2023-03-14T03:07:04;98809.81;;;19.93;22.39
77841;BME280;68598;43.188;-80.242;2023-03-14T03:09:30;98809.77;;;20.46;21.91
77841;BME280;68598;43.188;-80.242;2023-03-14T03:11:55;98808.82;;;20.69;21.88
77841;BME280;68598;43.188;-80.242;2023-03-14T03:14:21;98810.94;;;20.42;21.94
77841;BME280;68598;43.188;-80.242;2023-03-14T03:16:46;98810.32;;;20.50;22.04
77841;BME280;68598;43.188;-80.242;2023-03-14T03:19:12;98811.55;;;20.40;22.13
77841;BME280;68598;43.188;-80.242;2023-03-14T03:21:37;98811.89;;;20.19;22.26
77841;BME280;68598;43.188;-80.242;2023-03-14T03:24:03;98808.87;;;20.06;22.34
77841;BME280;68598;43.188;-80.242;2023-03-14T03:26:28;98812.39;;;19.54;22.79
77841;BME280;68598;43.188;-80.242;2023-03-14T03:28:54;98810.52;;;19.32;22.63
77841;BME280;68598;43.188;-80.242;2023-03-14T03:31:19;98809.47;;;19.87;22.51
77841;BME280;68598;43.188;-80.242;2023-03-14T03:33:45;98810.02;;;19.94;22.37
77841;BME280;68598;43.188;-80.242;2023-03-14T03:36:11;98807.12;;;19.44;22.37
77841;BME280;68598;43.188;-80.242;2023-03-14T03:38:36;98804.86;;;19.65;22.18
77841;BME280;68598;43.188;-80.242;2023-03-14T03:41:04;98804.14;;;19.78;22.27
77841;BME280;68598;43.188;-80.242;2023-03-14T03:43:27;98805.84;;;19.54;22.28
77841;BME280;68598;43.188;-80.242;2023-03-14T03:45:53;98804.90;;;19.96;22.04
77841;BME280;68598;43.188;-80.242;2023-03-14T03:48:18;98807.12;;;20.81;21.62
77841;BME280;68598;43.188;-80.242;2023-03-14T03:50:45;98808.75;;;20.88;21.64
77841;BME280;68598;43.188;-80.242;2023-03-14T03:53:09;98811.11;;;20.59;21.89
77841;BME280;68598;43.188;-80.242;2023-03-14T03:55:35;98811.75;;;20.56;21.97
77841;BME280;68598;43.188;-80.242;2023-03-14T03:58:00;98813.60;;;20.75;21.97
77841;BME280;68598;43.188;-80.242;2023-03-14T04:00:26;98811.59;;;20.67;22.01
77841;BME280;68598;43.188;-80.242;2023-03-14T04:02:51;98813.45;;;20.51;21.95
77841;BME280;68598;43.188;-80.242;2023-03-14T04:05:17;98816.48;;;20.31;22.07
77841;BME280;68598;43.188;-80.242;2023-03-14T04:07:42;98816.30;;;20.33;22.18
77841;BME280;68598;43.188;-80.242;2023-03-14T04:10:09;98817.16;;;19.24;22.75
77841;BME280;68598;43.188;-80.242;2023-03-14T04:12:33;98816.65;;;19.44;22.50
77841;BME280;68598;43.188;-80.242;2023-03-14T04:14:59;98817.77;;;19.62;22.44
77841;BME280;68598;43.188;-80.242;2023-03-14T04:17:25;98819.07;;;19.66;22.32
77841;BME280;68598;43.188;-80.242;2023-03-14T04:19:50;98821.21;;;19.88;22.12
77841;BME280;68598;43.188;-80.242;2023-03-14T04:22:16;98821.65;;;19.86;21.97
77841;BME280;68598;43.188;-80.242;2023-03-14T04:24:41;98822.95;;;19.76;22.21
77841;BME280;68598;43.188;-80.242;2023-03-14T04:27:07;98821.83;;;19.91;21.95
77841;BME280;68598;43.188;-80.242;2023-03-14T04:29:32;98821.12;;;20.48;21.66
77841;BME280;68598;43.188;-80.242;2023-03-14T04:31:58;98818.04;;;20.87;21.39
77841;BME280;68598;43.188;-80.242;2023-03-14T04:34:23;98820.66;;;21.08;21.43
77841;BME280;68598;43.188;-80.242;2023-03-14T04:36:49;98819.34;;;20.84;21.62
77841;BME280;68598;43.188;-80.242;2023-03-14T04:39:14;98817.48;;;20.73;21.58
77841;BME280;68598;43.188;-80.242;2023-03-14T04:41:40;98818.85;;;20.52;21.78
77841;BME280;68598;43.188;-80.242;2023-03-14T04:44:05;98816.36;;;20.35;21.87
77841;BME280;68598;43.188;-80.242;2023-03-14T04:46:31;98813.27;;;20.51;21.90
77841;BME280;68598;43.188;-80.242;2023-03-14T04:48:56;98812.62;;;19.37;22.63
77841;BME280;68598;43.188;-80.242;2023-03-14T04:51:22;98811.69;;;19.49;22.28
77841;BME280;68598;43.188;-80.242;2023-03-14T04:53:47;98808.53;;;19.58;22.27
77841;BME280;68598;43.188;-80.242;2023-03-14T04:56:13;98805.00;;;19.88;22.15
77841;BME280;68598;43.188;-80.242;2023-03-14T04:58:39;98804.61;;;19.72;22.01
77841;BME280;68598;43.188;-80.242;2023-03-14T05:01:05;98802.36;;;19.91;21.86
77841;BME280;68598;43.188;-80.242;2023-03-14T05:03:30;98803.45;;;20.10;21.72
77841;BME280;68598;43.188;-80.242;2023-03-14T05:05:55;98805.77;;;20.22;21.69
77841;BME280;68598;43.188;-80.242;2023-03-14T05:08:21;98796.85;;;20.87;21.30
77841;BME280;68598;43.188;-80.242;2023-03-14T05:10:52;98797.54;;;20.89;21.32
77841;BME280;68598;43.188;-80.242;2023-03-14T05:13:12;98803.38;;;20.63;21.55
77841;BME280;68598;43.188;-80.242;2023-03-14T05:15:37;98803.41;;;20.85;21.59
77841;BME280;68598;43.188;-80.242;2023-03-14T05:18:03;98801.99;;;20.56;21.63
77841;BME280;68598;43.188;-80.242;2023-03-14T05:20:28;98803.63;;;20.47;21.69
77841;BME280;68598;43.188;-80.242;2023-03-14T05:22:54;98805.69;;;20.64;21.70
77841;BME280;68598;43.188;-80.242;2023-03-14T05:25:19;98808.72;;;19.70;22.10
77841;BME280;68598;43.188;-80.242;2023-03-14T05:27:45;98806.08;;;19.87;21.91
77841;BME280;68598;43.188;-80.242;2023-03-14T05:30:11;98805.83;;;20.12;22.01
77841;BME280;68598;43.188;-80.242;2023-03-14T05:32:36;98803.05;;;19.60;21.95
77841;BME280;68598;43.188;-80.242;2023-03-14T05:35:02;98804.56;;;19.82;21.92
77841;BME280;68598;43.188;-80.242;2023-03-14T05:37:27;98805.18;;;20.25;21.46
77841;BME280;68598;43.188;-80.242;2023-03-14T05:39:53;98807.81;;;19.79;21.87
77841;BME280;68598;43.188;-80.242;2023-03-14T05:42:18;98805.00;;;20.05;21.54
77841;BME280;68598;43.188;-80.242;2023-03-14T05:44:44;98805.72;;;20.57;21.34
77841;BME280;68598;43.188;-80.242;2023-03-14T05:47:09;98802.66;;;21.04;21.12
77841;BME280;68598;43.188;-80.242;2023-03-14T05:49:35;98801.63;;;21.08;21.16
77841;BME280;68598;43.188;-80.242;2023-03-14T05:52:00;98802.64;;;21.20;21.27
77841;BME280;68598;43.188;-80.242;2023-03-14T05:54:26;98804.79;;;20.72;21.51
77841;BME280;68598;43.188;-80.242;2023-03-14T05:56:51;98806.15;;;20.74;21.49
77841;BME280;68598;43.188;-80.242;2023-03-14T05:59:17;98809.57;;;20.54;21.65
77841;BME280;68598;43.188;-80.242;2023-03-14T06:01:42;98813.63;;;20.52;21.64
77841;BME280;68598;43.188;-80.242;2023-03-14T06:04:08;98809.80;;;20.64;21.72
77841;BME280;68598;43.188;-80.242;2023-03-14T06:06:33;98808.82;;;20.89;21.68
77841;BME280;68598;43.188;-80.242;2023-03-14T06:08:59;98810.56;;;20.55;21.74
77841;BME280;68598;43.188;-80.242;2023-03-14T06:11:25;98815.66;;;19.94;22.09
77841;BME280;68598;43.188;-80.242;2023-03-14T06:13:51;98814.81;;;20.09;22.04
77841;BME280;68598;43.188;-80.242;2023-03-14T06:16:15;98813.58;;;19.96;21.89
77841;BME280;68598;43.188;-80.242;2023-03-14T06:18:41;98811.80;;;19.75;21.92
77841;BME280;68598;43.188;-80.242;2023-03-14T06:21:07;98813.75;;;19.99;21.89
77841;BME280;68598;43.188;-80.242;2023-03-14T06:23:32;98813.34;;;19.98;21.72
77841;BME280;68598;43.188;-80.242;2023-03-14T06:25:58;98810.31;;;20.04;21.49
77841;BME280;68598;43.188;-80.242;2023-03-14T06:28:23;98808.58;;;20.76;21.18
77841;BME280;68598;43.188;-80.242;2023-03-14T06:30:49;98803.39;;;21.08;20.95
77841;BME280;68598;43.188;-80.242;2023-03-14T06:33:14;98800.56;;;21.29;21.04
77841;BME280;68598;43.188;-80.242;2023-03-14T06:35:40;98808.23;;;20.71;21.34
77841;BME280;68598;43.188;-80.242;2023-03-14T06:38:05;98805.12;;;20.74;21.36
77841;BME280;68598;43.188;-80.242;2023-03-14T06:40:31;98810.43;;;20.81;21.46
77841;BME280;68598;43.188;-80.242;2023-03-14T06:42:56;98814.44;;;20.46;21.52
77841;BME280;68598;43.188;-80.242;2023-03-14T06:45:22;98817.68;;;20.59;21.60
77841;BME280;68598;43.188;-80.242;2023-03-14T06:47:48;98816.63;;;20.81;21.58
77841;BME280;68598;43.188;-80.242;2023-03-14T06:50:13;98814.10;;;20.22;21.66
77841;BME280;68598;43.188;-80.242;2023-03-14T06:52:38;98813.57;;;19.79;21.87
77841;BME280;68598;43.188;-80.242;2023-03-14T06:55:05;98815.66;;;19.16;22.21
77841;BME280;68598;43.188;-80.242;2023-03-14T06:57:29;98813.61;;;20.00;21.81
77841;BME280;68598;43.188;-80.242;2023-03-14T06:59:55;98813.92;;;19.76;21.75
77841;BME280;68598;43.188;-80.242;2023-03-14T07:02:21;98813.59;;;19.81;21.56
77841;BME280;68598;43.188;-80.242;2023-03-14T07:04:46;98812.21;;;20.12;21.44
77841;BME280;68598;43.188;-80.242;2023-03-14T07:07:12;98809.46;;;20.47;21.19
77841;BME280;68598;43.188;-80.242;2023-03-14T07:09:37;98809.80;;;20.24;21.31
77841;BME280;68598;43.188;-80.242;2023-03-14T07:12:03;98804.85;;;20.81;20.93
77841;BME280;68598;43.188;-80.242;2023-03-14T07:14:28;98799.86;;;20.89;20.77
77841;BME280;68598;43.188;-80.242;2023-03-14T07:16:54;98798.80;;;21.29;20.94
77841;BME280;68598;43.188;-80.242;2023-03-14T07:19:19;98796.47;;;21.12;21.10
77841;BME280;68598;43.188;-80.242;2023-03-14T07:21:45;98796.58;;;20.96;21.24
77841;BME280;68598;43.188;-80.242;2023-03-14T07:24:10;98799.27;;;20.49;21.39
77841;BME280;68598;43.188;-80.242;2023-03-14T07:26:36;98799.96;;;20.39;21.44
77841;BME280;68598;43.188;-80.242;2023-03-14T07:29:01;98798.50;;;20.35;21.45
77841;BME280;68598;43.188;-80.242;2023-03-14T07:31:27;98795.30;;;19.89;21.67
77841;BME280;68598;43.188;-80.242;2023-03-14T07:33:52;98795.05;;;19.88;21.64
77841;BME280;68598;43.188;-80.242;2023-03-14T07:36:18;98796.32;;;20.18;21.41
77841;BME280;68598;43.188;-80.242;2023-03-14T07:38:43;98795.50;;;20.14;21.46
77841;BME280;68598;43.188;-80.242;2023-03-14T07:41:09;98790.32;;;20.21;21.30
77841;BME280;68598;43.188;-80.242;2023-03-14T07:43:34;98791.16;;;20.36;21.16
77841;BME280;68598;43.188;-80.242;2023-03-14T07:46:00;98790.85;;;20.34;21.14
77841;BME280;68598;43.188;-80.242;2023-03-14T07:48:26;98787.95;;;20.50;21.09
77841;BME280;68598;43.188;-80.242;2023-03-14T07:50:52;98782.20;;;20.92;20.84
77841;BME280;68598;43.188;-80.242;2023-03-14T07:53:17;98781.27;;;21.34;20.64
77841;BME280;68598;43.188;-80.242;2023-03-14T07:55:42;98781.38;;;21.20;20.79
77841;BME280;68598;43.188;-80.242;2023-03-14T07:58:08;98777.84;;;21.05;20.97
77841;BME280;68598;43.188;-80.242;2023-03-14T08:00:33;98778.86;;;20.83;21.10
77841;BME280;68598;43.188;-80.242;2023-03-14T08:02:59;98783.59;;;21.08;21.09
77841;BME280;68598;43.188;-80.242;2023-03-14T08:05:24;98785.32;;;20.59;21.26
77841;BME280;68598;43.188;-80.242;2023-03-14T08:07:50;98789.05;;;20.38;21.37
77841;BME280;68598;43.188;-80.242;2023-03-14T08:10:16;98784.38;;;20.27;21.45
77841;BME280;68598;43.188;-80.242;2023-03-14T08:12:41;98783.72;;;20.39;21.35
77841;BME280;68598;43.188;-80.242;2023-03-14T08:15:07;98785.11;;;20.19;21.63
77841;BME280;68598;43.188;-80.242;2023-03-14T08:17:32;98782.81;;;19.88;21.54
77841;BME280;68598;43.188;-80.242;2023-03-14T08:19:57;98781.50;;;20.19;21.51
77841;BME280;68598;43.188;-80.242;2023-03-14T08:22:23;98784.93;;;20.43;21.29
77841;BME280;68598;43.188;-80.242;2023-03-14T08:24:49;98786.10;;;20.19;21.27
77841;BME280;68598;43.188;-80.242;2023-03-14T08:27:14;98785.91;;;20.10;21.30
77841;BME280;68598;43.188;-80.242;2023-03-14T08:29:39;98788.76;;;19.88;21.33
77841;BME280;68598;43.188;-80.242;2023-03-14T08:32:05;98793.22;;;20.05;21.23
77841;BME280;68598;43.188;-80.242;2023-03-14T08:34:33;98792.00;;;20.39;21.03
77841;BME280;68598;43.188;-80.242;2023-03-14T08:36:56;98790.39;;;21.14;20.67
77841;BME280;68598;43.188;-80.242;2023-03-14T08:39:22;98790.51;;;21.36;20.66
77841;BME280;68598;43.188;-80.242;2023-03-14T08:41:49;98791.77;;;20.99;20.80
77841;BME280;68598;43.188;-80.242;2023-03-14T08:44:13;98785.57;;;21.14;20.89
77841;BME280;68598;43.188;-80.242;2023-03-14T08:46:38;98793.95;;;21.15;21.09
77841;BME280;68598;43.188;-80.242;2023-03-14T08:49:04;98788.10;;;20.40;21.26
77841;BME280;68598;43.188;-80.242;2023-03-14T08:51:29;98789.60;;;20.92;21.24
77841;BME280;68598;43.188;-80.242;2023-03-14T08:53:55;98793.88;;;20.57;21.29
77841;BME280;68598;43.188;-80.242;2023-03-14T08:56:20;98792.68;;;20.55;21.27
77841;BME280;68598;43.188;-80.242;2023-03-14T08:58:46;98793.41;;;20.56;21.24
77841;BME280;68598;43.188;-80.242;2023-03-14T09:01:12;98792.69;;;20.79;21.23
77841;BME280;68598;43.188;-80.242;2023-03-14T09:03:38;98795.56;;;20.69;21.28
77841;BME280;68598;43.188;-80.242;2023-03-14T09:06:04;98799.05;;;20.56;21.16
77841;BME280;68598;43.188;-80.242;2023-03-14T09:08:28;98798.00;;;20.63;21.29
77841;BME280;68598;43.188;-80.242;2023-03-14T09:10:54;98803.52;;;19.14;22.13
77841;BME280;68598;43.188;-80.242;2023-03-14T09:13:19;98804.17;;;19.86;21.49
77841;BME280;68598;43.188;-80.242;2023-03-14T09:15:46;98799.89;;;20.09;21.37
77841;BME280;68598;43.188;-80.242;2023-03-14T09:18:10;98804.59;;;19.86;21.43
77841;BME280;68598;43.188;-80.242;2023-03-14T09:20:36;98805.97;;;20.21;21.19
77841;BME280;68598;43.188;-80.242;2023-03-14T09:23:01;98806.55;;;19.83;21.39
77841;BME280;68598;43.188;-80.242;2023-03-14T09:25:27;98807.05;;;20.12;21.21
77841;BME280;68598;43.188;-80.242;2023-03-14T09:27:52;98813.03;;;19.87;21.20
77841;BME280;68598;43.188;-80.242;2023-03-14T09:30:18;98813.37;;;20.54;20.96
77841;BME280;68598;43.188;-80.242;2023-03-14T09:32:43;98811.26;;;20.90;20.75
77841;BME280;68598;43.188;-80.242;2023-03-14T09:35:09;98811.93;;;21.26;20.59
77841;BME280;68598;43.188;-80.242;2023-03-14T09:37:34;98813.47;;;21.04;20.77
77841;BME280;68598;43.188;-80.242;2023-03-14T09:40:00;98819.65;;;20.87;20.94
77841;BME280;68598;43.188;-80.242;2023-03-14T09:42:26;98823.06;;;20.79;21.00
77841;BME280;68598;43.188;-80.242;2023-03-14T09:44:55;98821.98;;;20.67;21.10
77841;BME280;68598;43.188;-80.242;2023-03-14T09:47:17;98822.92;;;20.66;21.11
77841;BME280;68598;43.188;-80.242;2023-03-14T09:49:42;98827.72;;;20.56;21.16
77841;BME280;68598;43.188;-80.242;2023-03-14T09:52:13;98832.17;;;20.47;21.23
77841;BME280;68598;43.188;-80.242;2023-03-14T09:54:36;98832.51;;;20.55;21.31
77841;BME280;68598;43.188;-80.242;2023-03-14T09:56:58;98834.29;;;20.48;21.16
77841;BME280;68598;43.188;-80.242;2023-03-14T09:59:25;98838.02;;;20.54;21.27
77841;BME280;68598;43.188;-80.242;2023-03-14T10:01:50;98840.12;;;20.46;21.16
77841;BME280;68598;43.188;-80.242;2023-03-14T10:04:19;98840.49;;;19.76;21.71
77841;BME280;68598;43.188;-80.242;2023-03-14T10:06:41;98840.75;;;20.37;21.22
77841;BME280;68598;43.188;-80.242;2023-03-14T10:09:09;98838.81;;;20.34;21.24
77841;BME280;68598;43.188;-80.242;2023-03-14T10:11:32;98846.37;;;20.43;20.89
77841;BME280;68598;43.188;-80.242;2023-03-14T10:14:06;98844.37;;;19.87;21.08
77841;BME280;68598;43.188;-80.242;2023-03-14T10:16:28;98842.73;;;20.35;20.74
77841;BME280;68598;43.188;-80.242;2023-03-14T10:18:48;98847.41;;;19.38;21.21
77841;BME280;68598;43.188;-80.242;2023-03-14T10:21:25;98848.66;;;20.16;21.08
77841;BME280;68598;43.188;-80.242;2023-03-14T10:23:39;98848.69;;;20.71;20.55
77841;BME280;68598;43.188;-80.242;2023-03-14T10:26:11;98849.32;;;21.11;20.51
77841;BME280;68598;43.188;-80.242;2023-03-14T10:28:32;98854.08;;;21.09;20.58
77841;BME280;68598;43.188;-80.242;2023-03-14T10:30:57;98857.56;;;20.83;20.80
77841;BME280;68598;43.188;-80.242;2023-03-14T10:33:23;98851.56;;;20.68;20.91
77841;BME280;68598;43.188;-80.242;2023-03-14T10:35:52;98865.13;;;20.87;20.94
77841;BME280;68598;43.188;-80.242;2023-03-14T10:38:15;98865.53;;;20.73;21.05
77841;BME280;68598;43.188;-80.242;2023-03-14T10:40:39;98870.06;;;20.58;21.17
77841;BME280;68598;43.188;-80.242;2023-03-14T10:43:05;98871.78;;;20.65;21.28
77841;BME280;68598;43.188;-80.242;2023-03-14T10:45:33;98873.26;;;20.69;21.08
77841;BME280;68598;43.188;-80.242;2023-03-14T10:47:55;98876.14;;;19.84;21.34
77841;BME280;68598;43.188;-80.242;2023-03-14T10:50:24;98879.05;;;19.82;21.32
77841;BME280;68598;43.188;-80.242;2023-03-14T10:52:48;98888.35;;;20.11;21.11
77841;BME280;68598;43.188;-80.242;2023-03-14T10:55:12;98886.05;;;20.02;21.16
